Seaboard Patriot — D5IR5 — position and weather

sailwx.info

Track history (hours):
 
Tides and Currents Weather Stations Pressure Air Temp Water Temp Dewpoint Dewpoint Depression Visibility Wind Speed Wind Dir Waves Ship Positions

Seaboard Patriot

Last reported at 2018-Jan-20 08:57 UTC. Time now 2018-Jan-20 15:29 UTC.
Position N 25°19' W 080°03'.

Length 139 m; draft 6.3 m.

Type: Ship. MMSI: 636016975.

Date/timePositionNaut miles runAvg speedWind from/ knotsBaromVisibWave heightAir tempDewpointWater temp
2018-Jan-20 08:57N 25°19' W 080°03'614.1
2018-Jan-20 08:30N 25°25' W 080°02'815.3
2018-Jan-20 08:00N 25°33' W 080°02'816.2
2018-Jan-20 07:30N 25°41' W 080°03'611.5
2018-Jan-20 07:00N 25°46' W 080°06'3 6.4
2018-Jan-20 06:30N 25°46' W 080°10'1 1.3
2018-Jan-20 05:55N 25°46' W 080°09'0 0.0
2018-Jan-20 05:28N 25°46' W 080°09'0 0.0
2018-Jan-20 04:58N 25°46' W 080°09'0 0.0
2018-Jan-20 04:28N 25°46' W 080°09'0 0.0
2018-Jan-20 03:57N 25°46' W 080°09'0 0.0
2018-Jan-20 03:30N 25°46' W 080°09'0 0.0
2018-Jan-20 03:00N 25°46' W 080°09'0 0.0
2018-Jan-20 02:30N 25°46' W 080°09'0 0.0
2018-Jan-20 02:00N 25°46' W 080°09'0 0.0
2018-Jan-20 01:26N 25°46' W 080°09'0 0.0
2018-Jan-20 00:59N 25°46' W 080°09'0 0.0
2018-Jan-20 00:29N 25°46' W 080°09'0 0.0
2018-Jan-19 23:59N 25°46' W 080°09'0 0.0
2018-Jan-19 23:29N 25°46' W 080°09'0 0.0
2018-Jan-19 22:58N 25°46' W 080°09'0 0.0
2018-Jan-19 22:28N 25°46' W 080°09'0 0.0
2018-Jan-19 21:58N 25°46' W 080°09'0 0.0
2018-Jan-19 21:28N 25°46' W 080°09'0 0.0
2018-Jan-19 20:54N 25°46' W 080°09'0 0.0
2018-Jan-19 20:30N 25°46' W 080°09'0 0.0
2018-Jan-19 20:00N 25°46' W 080°09'0 0.0
2018-Jan-19 19:30N 25°46' W 080°09'0 0.0
2018-Jan-19 18:57N 25°46' W 080°09'0 0.0
2018-Jan-19 18:26N 25°46' W 080°09'0 0.0
2018-Jan-19 17:59N 25°46' W 080°09'0 0.0
2018-Jan-19 17:29N 25°46' W 080°09'0 0.0
2018-Jan-19 16:59N 25°46' W 080°09'0 0.0
2018-Jan-19 16:27N 25°46' W 080°09'0 0.0
2018-Jan-19 15:49N 25°46' W 080°09'0 0.0
2018-Jan-19 15:28N 25°46' W 080°09'0 0.0
2018-Jan-19 14:58N 25°46' W 080°09'0 0.0
2018-Jan-19 14:25N 25°46' W 080°09'0 0.0
2018-Jan-19 13:51N 25°46' W 080°09'0 0.0
2018-Jan-19 13:30N 25°46' W 080°09'0 0.0
2018-Jan-19 13:00N 25°46' W 080°09'0 0.0
2018-Jan-19 12:27N 25°46' W 080°09'0 0.0
2018-Jan-19 11:54N 25°46' W 080°09'0 0.0
2018-Jan-19 11:20N 25°46' W 080°09'0 0.0
2018-Jan-19 10:59N 25°46' W 080°09'0 0.0
2018-Jan-19 10:29N 25°46' W 080°09'0 0.0
2018-Jan-19 09:59N 25°46' W 080°09'0 0.0
2018-Jan-19 09:22N 25°46' W 080°09'0 0.0
2018-Jan-19 08:52N 25°46' W 080°09'0 0.0
2018-Jan-19 08:28N 25°46' W 080°09'0 0.0
2018-Jan-19 07:58N 25°46' W 080°09'0 0.0
2018-Jan-19 07:28N 25°46' W 080°09'0 0.0
2018-Jan-19 06:57N 25°46' W 080°09'0 0.0
2018-Jan-19 06:30N 25°46' W 080°09'0 0.0
2018-Jan-19 06:00N 25°46' W 080°09'0 0.0
2018-Jan-19 05:27N 25°46' W 080°09'0 0.0
2018-Jan-19 04:56N 25°46' W 080°09'0 0.0
2018-Jan-19 04:20N 25°46' W 080°09'0 0.0
2018-Jan-19 03:59N 25°46' W 080°09'0 0.0
2018-Jan-19 03:26N 25°46' W 080°09'0 0.0
2018-Jan-19 02:56N 25°46' W 080°09'0 0.0
2018-Jan-19 02:25N 25°46' W 080°09'0 0.0
2018-Jan-19 01:55N 25°46' W 080°09'0 0.0
2018-Jan-19 01:28N 25°46' W 080°09'0 0.0
2018-Jan-19 00:58N 25°46' W 080°09'0 0.0
2018-Jan-19 00:24N 25°46' W 080°09'0 0.0
2018-Jan-18 23:51N 25°46' W 080°09'0 0.0
2018-Jan-18 23:30N 25°46' W 080°09'0 0.0
2018-Jan-18 23:00N 25°46' W 080°09'0 0.0
2018-Jan-18 22:30N 25°46' W 080°09'0 0.0
2018-Jan-18 21:53N 25°46' W 080°09'0 0.0
2018-Jan-18 21:23N 25°46' W 080°09'0 0.0
2018-Jan-18 21:01N 25°46' W 080°09'1 1.4
2018-Jan-18 20:31N 25°46' W 080°08'4 8.0
2018-Jan-18 20:01N 25°45' W 080°04'714.5
2018-Jan-18 19:30N 25°38' W 080°01'714.9
2018-Jan-18 19:01N 25°31' W 080°01'815.1
2018-Jan-18 18:29N 25°23' W 080°01'  
2018-Jan-12 14:59N 25°46' W 080°10'0 0.0
2018-Jan-12 14:29N 25°46' W 080°10'0 0.0
2018-Jan-12 13:56N 25°46' W 080°10'0 0.0
2018-Jan-12 13:29N 25°46' W 080°10'0 0.0
2018-Jan-12 12:55N 25°46' W 080°10'0 0.0
2018-Jan-12 12:28N 25°46' W 080°10'0 0.0
2018-Jan-12 11:58N 25°46' W 080°10'0 0.0
2018-Jan-12 11:28N 25°46' W 080°10'0 0.0
2018-Jan-12 11:00N 25°46' W 080°10'0 0.0
2018-Jan-12 10:30N 25°46' W 080°10'0 0.0
2018-Jan-12 10:00N 25°46' W 080°10'0 0.0
2018-Jan-12 09:30N 25°46' W 080°10'0 0.0
2018-Jan-12 08:54N 25°46' W 080°10'0 0.0
2018-Jan-12 08:29N 25°46' W 080°10'0 0.0
2018-Jan-12 07:59N 25°46' W 080°10'0 0.0
2018-Jan-12 07:29N 25°46' W 080°10'0 0.0
2018-Jan-12 06:59N 25°46' W 080°10'0 0.0
2018-Jan-12 06:28N 25°46' W 080°10'0 0.0
2018-Jan-12 05:58N 25°46' W 080°10'0 0.0
2018-Jan-12 05:28N 25°46' W 080°10'0 0.0
2018-Jan-12 04:58N 25°46' W 080°10'0 0.0
2018-Jan-12 04:28N 25°46' W 080°10'0 0.0
2018-Jan-12 04:00N 25°46' W 080°10'0 0.0
2018-Jan-12 03:30N 25°46' W 080°10'0 0.0
2018-Jan-12 03:00N 25°46' W 080°10'0 0.0
2018-Jan-12 02:30N 25°46' W 080°10'0 0.0
2018-Jan-12 01:54N 25°46' W 080°10'0 0.0
2018-Jan-12 01:29N 25°46' W 080°10'0 0.0
2018-Jan-12 00:59N 25°46' W 080°10'0 0.0
2018-Jan-12 00:26N 25°46' W 080°10'0 0.0
2018-Jan-11 23:59N 25°46' W 080°10'0 0.0
2018-Jan-11 23:28N 25°46' W 080°10'0 0.0
2018-Jan-11 22:58N 25°46' W 080°10'0 0.0
2018-Jan-11 22:28N 25°46' W 080°10'0 0.9
2018-Jan-11 21:58N 25°46' W 080°10'0 0.0
2018-Jan-11 21:30N 25°46' W 080°10'0 0.0
2018-Jan-11 21:00N 25°46' W 080°10'0 0.0
2018-Jan-11 20:30N 25°46' W 080°10'0 0.0
2018-Jan-11 20:00N 25°46' W 080°10'0 0.0
2018-Jan-11 19:29N 25°46' W 080°10'0 0.0
2018-Jan-11 18:59N 25°46' W 080°10'0 0.0
2018-Jan-11 18:29N 25°46' W 080°10'0 0.0
2018-Jan-11 17:59N 25°46' W 080°10'0 0.0
2018-Jan-11 17:29N 25°46' W 080°10'0 0.0
2018-Jan-11 16:58N 25°46' W 080°10'0 0.0
2018-Jan-11 16:28N 25°46' W 080°10'0 0.0
2018-Jan-11 15:58N 25°46' W 080°10'0 0.0
2018-Jan-11 15:25N 25°46' W 080°10'0 0.0
2018-Jan-11 14:55N 25°46' W 080°10'0 0.0
2018-Jan-11 14:30N 25°46' W 080°10'0 0.0
2018-Jan-11 13:57N 25°46' W 080°10'0 0.0
2018-Jan-11 13:30N 25°46' W 080°10'0 0.1
2018-Jan-11 12:59N 25°46' W 080°10'2 4.8
2018-Jan-11 12:31N 25°45' W 080°07'4 7.1
2018-Jan-11 12:00N 25°44' W 080°04'917.6
2018-Jan-11 11:30N 25°35' W 080°02'1019.6
2018-Jan-11 11:00N 25°25' W 080°02'1019.0
2018-Jan-11 10:30N 25°16' W 080°02'  
Track history (hours):
 
Tides and Currents Weather Stations Pressure Air Temp Water Temp Dewpoint Dewpoint Depression Visibility Wind Speed Wind Dir Waves Ship Positions

Seaboard Patriot

Last reported at 2018-Jan-20 08:57 UTC. Time now 2018-Jan-20 15:29 UTC.
Position N 25°19' W 080°03'.

Length 139 m; draft 6.3 m.

Type: Ship. MMSI: 636016975.

Date/timePositionNaut miles runAvg speedWind from/ knotsBaromVisibWave heightAir tempDewpointWater temp
2018-Jan-20 08:57N 25°19' W 080°03'614.1
2018-Jan-20 08:30N 25°25' W 080°02'815.3
2018-Jan-20 08:00N 25°33' W 080°02'816.2
2018-Jan-20 07:30N 25°41' W 080°03'611.5
2018-Jan-20 07:00N 25°46' W 080°06'3 6.4
2018-Jan-20 06:30N 25°46' W 080°10'1 1.3
2018-Jan-20 05:55N 25°46' W 080°09'0 0.0
2018-Jan-20 05:28N 25°46' W 080°09'0 0.0
2018-Jan-20 04:58N 25°46' W 080°09'0 0.0
2018-Jan-20 04:28N 25°46' W 080°09'0 0.0
2018-Jan-20 03:57N 25°46' W 080°09'0 0.0
2018-Jan-20 03:30N 25°46' W 080°09'0 0.0
2018-Jan-20 03:00N 25°46' W 080°09'0 0.0
2018-Jan-20 02:30N 25°46' W 080°09'0 0.0
2018-Jan-20 02:00N 25°46' W 080°09'0 0.0
2018-Jan-20 01:26N 25°46' W 080°09'0 0.0
2018-Jan-20 00:59N 25°46' W 080°09'0 0.0
2018-Jan-20 00:29N 25°46' W 080°09'0 0.0
2018-Jan-19 23:59N 25°46' W 080°09'0 0.0
2018-Jan-19 23:29N 25°46' W 080°09'0 0.0
2018-Jan-19 22:58N 25°46' W 080°09'0 0.0
2018-Jan-19 22:28N 25°46' W 080°09'0 0.0
2018-Jan-19 21:58N 25°46' W 080°09'0 0.0
2018-Jan-19 21:28N 25°46' W 080°09'0 0.0
2018-Jan-19 20:54N 25°46' W 080°09'0 0.0
2018-Jan-19 20:30N 25°46' W 080°09'0 0.0
2018-Jan-19 20:00N 25°46' W 080°09'0 0.0
2018-Jan-19 19:30N 25°46' W 080°09'0 0.0
2018-Jan-19 18:57N 25°46' W 080°09'0 0.0
2018-Jan-19 18:26N 25°46' W 080°09'0 0.0
2018-Jan-19 17:59N 25°46' W 080°09'0 0.0
2018-Jan-19 17:29N 25°46' W 080°09'0 0.0
2018-Jan-19 16:59N 25°46' W 080°09'0 0.0
2018-Jan-19 16:27N 25°46' W 080°09'0 0.0
2018-Jan-19 15:49N 25°46' W 080°09'0 0.0
2018-Jan-19 15:28N 25°46' W 080°09'0 0.0
2018-Jan-19 14:58N 25°46' W 080°09'0 0.0
2018-Jan-19 14:25N 25°46' W 080°09'0 0.0
2018-Jan-19 13:51N 25°46' W 080°09'0 0.0
2018-Jan-19 13:30N 25°46' W 080°09'0 0.0
2018-Jan-19 13:00N 25°46' W 080°09'0 0.0
2018-Jan-19 12:27N 25°46' W 080°09'0 0.0
2018-Jan-19 11:54N 25°46' W 080°09'0 0.0
2018-Jan-19 11:20N 25°46' W 080°09'0 0.0
2018-Jan-19 10:59N 25°46' W 080°09'0 0.0
2018-Jan-19 10:29N 25°46' W 080°09'0 0.0
2018-Jan-19 09:59N 25°46' W 080°09'0 0.0
2018-Jan-19 09:22N 25°46' W 080°09'0 0.0
2018-Jan-19 08:52N 25°46' W 080°09'0 0.0
2018-Jan-19 08:28N 25°46' W 080°09'0 0.0
2018-Jan-19 07:58N 25°46' W 080°09'0 0.0
2018-Jan-19 07:28N 25°46' W 080°09'0 0.0
2018-Jan-19 06:57N 25°46' W 080°09'0 0.0
2018-Jan-19 06:30N 25°46' W 080°09'0 0.0
2018-Jan-19 06:00N 25°46' W 080°09'0 0.0
2018-Jan-19 05:27N 25°46' W 080°09'0 0.0
2018-Jan-19 04:56N 25°46' W 080°09'0 0.0
2018-Jan-19 04:20N 25°46' W 080°09'0 0.0
2018-Jan-19 03:59N 25°46' W 080°09'0 0.0
2018-Jan-19 03:26N 25°46' W 080°09'0 0.0
2018-Jan-19 02:56N 25°46' W 080°09'0 0.0
2018-Jan-19 02:25N 25°46' W 080°09'0 0.0
2018-Jan-19 01:55N 25°46' W 080°09'0 0.0
2018-Jan-19 01:28N 25°46' W 080°09'0 0.0
2018-Jan-19 00:58N 25°46' W 080°09'0 0.0
2018-Jan-19 00:24N 25°46' W 080°09'0 0.0
2018-Jan-18 23:51N 25°46' W 080°09'0 0.0
2018-Jan-18 23:30N 25°46' W 080°09'0 0.0
2018-Jan-18 23:00N 25°46' W 080°09'0 0.0
2018-Jan-18 22:30N 25°46' W 080°09'0 0.0
2018-Jan-18 21:53N 25°46' W 080°09'0 0.0
2018-Jan-18 21:23N 25°46' W 080°09'0 0.0
2018-Jan-18 21:01N 25°46' W 080°09'1 1.4
2018-Jan-18 20:31N 25°46' W 080°08'4 8.0
2018-Jan-18 20:01N 25°45' W 080°04'714.5
2018-Jan-18 19:30N 25°38' W 080°01'714.9
2018-Jan-18 19:01N 25°31' W 080°01'815.1
2018-Jan-18 18:29N 25°23' W 080°01'  
2018-Jan-12 14:59N 25°46' W 080°10'0 0.0
2018-Jan-12 14:29N 25°46' W 080°10'0 0.0
2018-Jan-12 13:56N 25°46' W 080°10'0 0.0
2018-Jan-12 13:29N 25°46' W 080°10'0 0.0
2018-Jan-12 12:55N 25°46' W 080°10'0 0.0
2018-Jan-12 12:28N 25°46' W 080°10'0 0.0
2018-Jan-12 11:58N 25°46' W 080°10'0 0.0
2018-Jan-12 11:28N 25°46' W 080°10'0 0.0
2018-Jan-12 11:00N 25°46' W 080°10'0 0.0
2018-Jan-12 10:30N 25°46' W 080°10'0 0.0
2018-Jan-12 10:00N 25°46' W 080°10'0 0.0
2018-Jan-12 09:30N 25°46' W 080°10'0 0.0
2018-Jan-12 08:54N 25°46' W 080°10'0 0.0
2018-Jan-12 08:29N 25°46' W 080°10'0 0.0
2018-Jan-12 07:59N 25°46' W 080°10'0 0.0
2018-Jan-12 07:29N 25°46' W 080°10'0 0.0
2018-Jan-12 06:59N 25°46' W 080°10'0 0.0
2018-Jan-12 06:28N 25°46' W 080°10'0 0.0
2018-Jan-12 05:58N 25°46' W 080°10'0 0.0
2018-Jan-12 05:28N 25°46' W 080°10'0 0.0
2018-Jan-12 04:58N 25°46' W 080°10'0 0.0
2018-Jan-12 04:28N 25°46' W 080°10'0 0.0
2018-Jan-12 04:00N 25°46' W 080°10'0 0.0
2018-Jan-12 03:30N 25°46' W 080°10'0 0.0
2018-Jan-12 03:00N 25°46' W 080°10'0 0.0
2018-Jan-12 02:30N 25°46' W 080°10'0 0.0
2018-Jan-12 01:54N 25°46' W 080°10'0 0.0
2018-Jan-12 01:29N 25°46' W 080°10'0 0.0
2018-Jan-12 00:59N 25°46' W 080°10'0 0.0
2018-Jan-12 00:26N 25°46' W 080°10'0 0.0
2018-Jan-11 23:59N 25°46' W 080°10'0 0.0
2018-Jan-11 23:28N 25°46' W 080°10'0 0.0
2018-Jan-11 22:58N 25°46' W 080°10'0 0.0
2018-Jan-11 22:28N 25°46' W 080°10'0 0.9
2018-Jan-11 21:58N 25°46' W 080°10'0 0.0
2018-Jan-11 21:30N 25°46' W 080°10'0 0.0
2018-Jan-11 21:00N 25°46' W 080°10'0 0.0
2018-Jan-11 20:30N 25°46' W 080°10'0 0.0
2018-Jan-11 20:00N 25°46' W 080°10'0 0.0
2018-Jan-11 19:29N 25°46' W 080°10'0 0.0
2018-Jan-11 18:59N 25°46' W 080°10'0 0.0
2018-Jan-11 18:29N 25°46' W 080°10'0 0.0
2018-Jan-11 17:59N 25°46' W 080°10'0 0.0
2018-Jan-11 17:29N 25°46' W 080°10'0 0.0
2018-Jan-11 16:58N 25°46' W 080°10'0 0.0
2018-Jan-11 16:28N 25°46' W 080°10'0 0.0
2018-Jan-11 15:58N 25°46' W 080°10'0 0.0
2018-Jan-11 15:25N 25°46' W 080°10'0 0.0
2018-Jan-11 14:55N 25°46' W 080°10'0 0.0
2018-Jan-11 14:30N 25°46' W 080°10'0 0.0
2018-Jan-11 13:57N 25°46' W 080°10'0 0.0
2018-Jan-11 13:30N 25°46' W 080°10'0 0.1
2018-Jan-11 12:59N 25°46' W 080°10'2 4.8
2018-Jan-11 12:31N 25°45' W 080°07'4 7.1
2018-Jan-11 12:00N 25°44' W 080°04'917.6
2018-Jan-11 11:30N 25°35' W 080°02'1019.6
2018-Jan-11 11:00N 25°25' W 080°02'1019.0
2018-Jan-11 10:30N 25°16' W 080°02'  

Dump ship's entire track history